Time;durP1;ratioP1;P1;durP2;ratioP2;P2;SDS_P1;SDS_P2;PMS_P1;PMS_P2;Temp;Humidity;BMP_temperature;BMP_pressure;BME280_temperature;BME280_humidity;BME280_pressure;Samples;Min_cycle;Max_cycle;Signal;HPM_P1;HPM_P2
2022/12/21 00:00:24;;;;;;;1.12;0.85;;;6.20;99.90;;;;;;4404134;32;20066;-77
2022/12/21 00:02:49;;;;;;;3.62;1.48;;;6.20;99.90;;;;;;4406161;32;20094;-77
2022/12/21 00:05:15;;;;;;;4.07;1.50;;;6.20;99.90;;;;;;4408376;32;20093;-77
2022/12/21 00:07:40;;;;;;;3.25;1.75;;;6.20;99.90;;;;;;4407041;32;20086;-77
2022/12/21 00:10:06;;;;;;;1.70;1.05;;;6.20;99.90;;;;;;4390683;32;20098;-78
2022/12/21 00:12:32;;;;;;;0.45;0.45;;;6.20;99.90;;;;;;4386323;32;20117;-78
2022/12/21 00:14:57;;;;;;;1.75;1.20;;;6.20;99.90;;;;;;4395453;32;20663;-77
2022/12/21 00:17:23;;;;;;;1.27;1.17;;;6.20;99.90;;;;;;4396509;32;20489;-78
2022/12/21 00:19:48;;;;;;;2.80;1.17;;;6.10;99.90;;;;;;4391773;32;20952;-77
2022/12/21 00:22:14;;;;;;;1.23;1.15;;;6.10;99.90;;;;;;4404313;32;20086;-78
2022/12/21 00:24:39;;;;;;;1.08;1.00;;;6.10;99.90;;;;;;4403878;32;20066;-77
2022/12/21 00:27:05;;;;;;;1.10;1.00;;;6.10;99.90;;;;;;4404924;32;20136;-78
2022/12/21 00:29:30;;;;;;;4.75;1.37;;;6.10;99.90;;;;;;4403480;32;20377;-78
2022/12/21 00:31:55;;;;;;;1.70;0.70;;;6.20;99.90;;;;;;4401550;32;21287;-77
2022/12/21 00:34:21;;;;;;;2.92;0.75;;;6.10;99.90;;;;;;4401835;32;20089;-78
2022/12/21 00:36:48;;;;;;;2.40;1.58;;;6.20;99.90;;;;;;4404339;32;20094;-77
2022/12/21 00:39:15;;;;;;;3.03;1.48;;;6.10;99.90;;;;;;4399349;32;20117;-78
2022/12/21 00:41:41;;;;;;;1.10;0.98;;;6.10;99.90;;;;;;4378966;32;20078;-78
2022/12/21 00:44:07;;;;;;;3.70;1.15;;;6.10;99.90;;;;;;4393909;32;20125;-77
2022/12/21 00:46:33;;;;;;;2.35;1.05;;;6.00;99.90;;;;;;4402161;32;20102;-78
2022/12/21 00:49:00;;;;;;;1.30;1.20;;;6.00;99.90;;;;;;4387045;32;20077;-78
2022/12/21 00:51:27;;;;;;;0.70;0.70;;;6.00;99.90;;;;;;4402940;32;20101;-77
2022/12/21 00:53:55;;;;;;;0.77;0.68;;;6.00;99.90;;;;;;4402874;32;20074;-77
2022/12/21 00:56:21;;;;;;;1.00;0.95;;;6.00;99.90;;;;;;4404133;32;20082;-77
2022/12/21 00:58:48;;;;;;;1.12;1.10;;;6.00;99.90;;;;;;4402127;32;20162;-77
2022/12/21 01:01:21;;;;;;;0.70;0.70;;;6.00;99.90;;;;;;4401606;32;20126;-77
2022/12/21 01:03:47;;;;;;;0.73;0.73;;;6.00;99.90;;;;;;4403532;32;20094;-77
2022/12/21 01:06:14;;;;;;;4.22;1.90;;;6.00;99.90;;;;;;4400289;32;20100;-77
2022/12/21 01:08:40;;;;;;;2.33;1.62;;;6.00;99.90;;;;;;4401511;32;20058;-78
2022/12/21 01:11:06;;;;;;;0.85;0.85;;;6.00;99.90;;;;;;4373620;32;20078;-77
2022/12/21 01:13:32;;;;;;;0.62;0.62;;;6.00;99.90;;;;;;4386922;32;20061;-78
2022/12/21 01:15:58;;;;;;;2.10;1.40;;;5.90;99.90;;;;;;4400233;32;20683;-77
2022/12/21 01:18:25;;;;;;;1.52;1.42;;;6.00;99.90;;;;;;4385068;32;20093;-77
2022/12/21 01:20:54;;;;;;;1.23;1.08;;;6.00;99.90;;;;;;4398867;32;20202;-77
2022/12/21 01:23:20;;;;;;;1.35;1.10;;;6.00;99.90;;;;;;4403431;32;20431;-77
2022/12/21 01:25:46;;;;;;;3.15;1.52;;;6.00;99.90;;;;;;4402751;32;20106;-77
2022/12/21 01:28:12;;;;;;;1.42;0.85;;;6.00;99.90;;;;;;4405004;32;20569;-77
2022/12/21 01:30:39;;;;;;;3.12;1.25;;;5.90;99.90;;;;;;4403086;32;20078;-78
2022/12/21 01:33:08;;;;;;;1.65;1.12;;;6.00;99.90;;;;;;4402621;32;20098;-78
2022/12/21 01:35:39;;;;;;;1.60;1.48;;;5.90;99.90;;;;;;4401232;32;20163;-78
2022/12/21 01:38:04;;;;;;;;;;;6.00;99.90;;;;;;4405299;32;20087;-77
2022/12/21 01:40:30;;;;;;;1.00;1.00;;;5.90;99.90;;;;;;4387876;32;20410;-78
2022/12/21 01:42:55;;;;;;;9.05;1.27;;;5.90;99.90;;;;;;4386306;32;20094;-77
2022/12/21 01:45:29;;;;;;;2.40;1.42;;;5.90;99.90;;;;;;4398077;32;20105;-77
2022/12/21 01:48:07;;;;;;;1.70;1.45;;;5.80;99.90;;;;;;4387710;32;20054;-77
2022/12/21 01:50:56;;;;;;;0.70;0.70;;;5.80;99.90;;;;;;4397486;32;20180;-76
2022/12/21 01:53:27;;;;;;;1.37;1.27;;;5.80;99.90;;;;;;4395974;32;20078;-77
2022/12/21 01:55:55;;;;;;;0.62;0.62;;;5.80;99.90;;;;;;4407630;32;20093;-77
2022/12/21 01:58:25;;;;;;;0.82;0.82;;;5.70;99.90;;;;;;4408551;32;20086;-76
2022/12/21 02:00:50;;;;;;;2.95;1.23;;;5.70;99.90;;;;;;4408986;32;20425;-77
2022/12/21 02:03:19;;;;;;;1.05;1.00;;;5.70;99.90;;;;;;4407981;32;20110;-77
2022/12/21 02:06:08;;;;;;;0.82;0.80;;;5.80;99.90;;;;;;4408077;32;20470;-76
2022/12/21 02:08:34;;;;;;;6.12;1.62;;;5.80;99.90;;;;;;4395575;32;20109;-77
2022/12/21 02:11:01;;;;;;;1.05;1.05;;;5.80;99.90;;;;;;4380362;32;20130;-77
2022/12/21 02:13:27;;;;;;;1.65;1.20;;;5.80;99.90;;;;;;4396372;32;20062;-77
2022/12/21 02:16:19;;;;;;;7.20;1.20;;;5.80;99.90;;;;;;4407174;32;20123;-77
2022/12/21 02:19:19;;;;;;;1.25;1.15;;;5.80;99.90;;;;;;4372156;32;20101;-77
2022/12/21 02:21:52;;;;;;;2.97;1.23;;;5.80;99.90;;;;;;4399227;32;20122;-76
2022/12/21 02:24:44;;;;;;;1.25;1.23;;;5.80;99.90;;;;;;4409079;32;20186;-77
2022/12/21 02:27:31;;;;;;;1.62;1.23;;;5.80;99.90;;;;;;4397252;32;20190;-76
2022/12/21 02:30:18;;;;;;;2.28;1.30;;;5.80;99.90;;;;;;4397717;32;20094;-77
2022/12/21 02:33:10;;;;;;;1.30;0.93;;;5.80;99.90;;;;;;4398601;32;20104;-77
2022/12/21 02:35:51;;;;;;;3.67;1.30;;;5.80;99.90;;;;;;4396641;32;20175;-77
2022/12/21 02:38:32;;;;;;;1.10;1.05;;;5.80;99.90;;;;;;4412922;32;20074;-77
2022/12/21 02:41:09;;;;;;;3.62;1.12;;;5.80;99.90;;;;;;4383564;32;20099;-77
2022/12/21 02:44:24;;;;;;;0.85;0.85;;;5.80;99.90;;;;;;4395293;32;20251;-77
2022/12/21 02:46:57;;;;;;;0.90;0.85;;;5.80;99.90;;;;;;4397547;32;20120;-77
2022/12/21 02:49:32;;;;;;;0.93;0.93;;;5.80;99.90;;;;;;4391121;32;20140;-77
2022/12/21 02:52:12;;;;;;;1.05;0.98;;;5.80;99.90;;;;;;4407679;32;20078;-76
2022/12/21 02:54:39;;;;;;;4.35;1.58;;;5.80;99.90;;;;;;4408265;32;20419;-77
2022/12/21 02:57:05;;;;;;;1.65;1.23;;;5.80;99.90;;;;;;4413255;32;20074;-77
2022/12/21 02:59:39;;;;;;;5.60;1.70;;;5.80;99.90;;;;;;4411105;32;20148;-76
2022/12/21 05:54:23;;;;;;;1.23;1.12;;;5.70;99.90;;;;;;4345446;32;20642;-77
2022/12/21 05:56:49;;;;;;;1.12;0.70;;;5.80;99.90;;;;;;4378428;32;20094;-76
2022/12/21 05:59:15;;;;;;;0.55;0.55;;;5.90;99.90;;;;;;4408524;32;20086;-76
2022/12/21 06:01:41;;;;;;;1.17;0.90;;;5.90;99.90;;;;;;4401212;32;20097;-78
2022/12/21 06:04:06;;;;;;;1.65;1.20;;;5.90;99.90;;;;;;4387900;32;20097;-78
2022/12/21 06:06:32;;;;;;;1.05;1.05;;;5.90;99.90;;;;;;4381536;32;20070;-78
2022/12/21 06:08:57;;;;;;;0.73;0.73;;;5.80;99.90;;;;;;4372052;32;20114;-78
2022/12/21 06:11:24;;;;;;;2.30;1.23;;;5.90;99.90;;;;;;4356784;32;20109;-78
2022/12/21 06:13:50;;;;;;;2.83;1.52;;;5.90;99.90;;;;;;4354961;32;20608;-78
2022/12/21 06:16:19;;;;;;;0.95;0.70;;;6.00;99.90;;;;;;4370788;32;20082;-76
2022/12/21 06:18:45;;;;;;;2.20;1.35;;;6.00;99.90;;;;;;4309263;32;20221;-76
2022/12/21 06:21:12;;;;;;;0.90;0.88;;;6.00;99.90;;;;;;4324759;32;20066;-76
2022/12/21 06:23:39;;;;;;;1.67;1.52;;;6.00;99.90;;;;;;4304426;32;20078;-76
2022/12/21 06:26:07;;;;;;;1.45;1.05;;;6.00;99.90;;;;;;4309842;32;20369;-76
2022/12/21 06:28:33;;;;;;;3.17;0.90;;;6.10;99.90;;;;;;4333035;32;20251;-76
2022/12/21 06:31:09;;;;;;;1.83;1.65;;;6.10;99.90;;;;;;4294376;32;20343;-76
2022/12/21 06:33:36;;;;;;;0.70;0.70;;;6.10;99.90;;;;;;4337487;32;20318;-77
2022/12/21 06:36:04;;;;;;;1.85;1.50;;;6.20;99.90;;;;;;4327861;32;20388;-77
2022/12/21 06:38:31;;;;;;;4.82;1.83;;;6.20;99.90;;;;;;4340456;32;20127;-77
2022/12/21 06:41:01;;;;;;;0.85;0.85;;;6.20;99.90;;;;;;4330893;32;20156;-79
2022/12/21 06:43:29;;;;;;;3.40;2.33;;;6.20;99.90;;;;;;4339472;32;20339;-77
2022/12/21 06:45:58;;;;;;;4.15;2.33;;;6.30;99.90;;;;;;4355596;32;20086;-77
2022/12/21 06:48:24;;;;;;;5.62;2.15;;;6.30;99.90;;;;;;4367188;32;21239;-77
2022/12/21 06:50:53;;;;;;;5.15;2.25;;;6.30;99.90;;;;;;4366572;32;20238;-78
2022/12/21 06:53:19;;;;;;;0.65;0.65;;;6.30;99.90;;;;;;4377751;32;20097;-77
2022/12/21 06:55:45;;;;;;;1.10;1.05;;;6.30;99.90;;;;;;4393681;32;20544;-77
2022/12/21 06:58:10;;;;;;;2.30;1.40;;;6.30;99.90;;;;;;4375351;32;20098;-77
2022/12/21 07:00:36;;;;;;;0.90;0.85;;;6.30;99.90;;;;;;4351298;32;20101;-77
2022/12/21 07:03:01;;;;;;;1.00;0.98;;;6.40;99.90;;;;;;4350286;32;20206;-78
2022/12/21 07:05:27;;;;;;;1.75;1.08;;;6.40;99.90;;;;;;4360477;32;20134;-77
2022/12/21 07:07:52;;;;;;;0.65;0.65;;;6.40;99.90;;;;;;4376329;32;20415;-77
2022/12/21 07:10:18;;;;;;;15.55;3.17;;;6.40;99.90;;;;;;4379085;32;20230;-77
2022/12/21 07:12:44;;;;;;;1.27;1.17;;;6.40;99.90;;;;;;4385973;32;21045;-77
2022/12/21 07:15:09;;;;;;;1.75;1.50;;;6.40;99.90;;;;;;4382947;32;20140;-79
2022/12/21 07:17:35;;;;;;;1.00;1.00;;;6.40;99.90;;;;;;4388049;32;20110;-77
2022/12/21 07:20:01;;;;;;;2.40;1.40;;;6.40;99.90;;;;;;4369607;32;20284;-77
2022/12/21 07:22:26;;;;;;;0.68;0.68;;;6.40;99.90;;;;;;4359338;32;21458;-78
2022/12/21 07:24:52;;;;;;;9.63;1.60;;;6.40;99.90;;;;;;4379972;32;20122;-76
2022/12/21 07:27:17;;;;;;;1.08;1.05;;;6.40;99.90;;;;;;4388978;32;20233;-77
2022/12/21 07:29:43;;;;;;;0.90;0.90;;;6.40;99.90;;;;;;4379959;32;20227;-76
2022/12/21 07:32:09;;;;;;;1.50;1.12;;;6.30;99.90;;;;;;4380134;32;91724;-78
2022/12/21 07:34:35;;;;;;;2.15;1.08;;;6.40;99.90;;;;;;4367371;32;20070;-77
2022/12/21 07:37:01;;;;;;;2.37;1.70;;;6.50;99.90;;;;;;4387850;32;20165;-76
2022/12/21 07:39:26;;;;;;;1.70;1.40;;;6.50;99.90;;;;;;4390390;32;20312;-77
2022/12/21 07:41:52;;;;;;;1.33;1.02;;;6.50;99.90;;;;;;4379314;32;20118;-76
2022/12/21 07:44:17;;;;;;;0.73;0.73;;;6.50;99.90;;;;;;4385585;32;21403;-77
2022/12/21 07:46:44;;;;;;;4.55;1.08;;;6.50;99.90;;;;;;4391381;32;20093;-76
2022/12/21 07:49:09;;;;;;;0.77;0.77;;;6.50;99.90;;;;;;4374738;32;20097;-77
2022/12/21 07:51:35;;;;;;;2.08;0.80;;;6.50;99.90;;;;;;4375704;32;20184;-76
2022/12/21 07:54:00;;;;;;;0.98;0.98;;;6.50;99.90;;;;;;4368956;32;20229;-76
2022/12/21 07:56:26;;;;;;;2.65;2.12;;;6.60;99.90;;;;;;4382545;32;20102;-76
2022/12/21 07:58:51;;;;;;;5.40;1.73;;;6.60;99.90;;;;;;4385976;32;20134;-76
2022/12/21 08:01:20;;;;;;;2.37;1.37;;;6.50;99.90;;;;;;4372076;32;20220;-79
2022/12/21 08:03:47;;;;;;;4.93;1.52;;;6.60;99.90;;;;;;4356608;32;20176;-77
2022/12/21 08:06:13;;;;;;;0.93;0.90;;;6.60;99.90;;;;;;4362213;32;20435;-77
2022/12/21 08:08:39;;;;;;;1.17;1.15;;;6.60;99.90;;;;;;4355166;32;20210;-78
2022/12/21 08:11:09;;;;;;;3.80;1.73;;;6.60;99.90;;;;;;4370835;32;20247;-82
2022/12/21 08:13:34;;;;;;;1.55;1.10;;;6.70;99.90;;;;;;4358878;32;20413;-81
2022/12/21 08:16:02;;;;;;;2.08;1.12;;;6.70;99.90;;;;;;4373031;32;20323;-77
2022/12/21 08:18:32;;;;;;;6.70;0.98;;;6.70;99.90;;;;;;4368719;32;20992;-81
2022/12/21 08:20:59;;;;;;;1.45;1.17;;;6.70;99.90;;;;;;4367842;32;20094;-81
2022/12/21 08:23:24;;;;;;;1.15;0.80;;;6.70;99.90;;;;;;4358300;32;21248;-78
2022/12/21 08:25:50;;;;;;;2.03;1.33;;;6.70;99.90;;;;;;4362198;32;20113;-79
2022/12/21 08:28:16;;;;;;;0.95;0.93;;;6.70;99.90;;;;;;4361170;32;20366;-78
2022/12/21 08:30:42;;;;;;;1.48;1.17;;;6.70;99.90;;;;;;4341972;32;20134;-78
2022/12/21 08:33:09;;;;;;;2.65;1.77;;;6.70;99.90;;;;;;4331691;32;21857;-78
2022/12/21 08:35:35;;;;;;;1.20;1.15;;;6.70;99.90;;;;;;4331317;32;20284;-79
2022/12/21 08:38:02;;;;;;;0.90;0.90;;;6.70;99.90;;;;;;4356827;32;20098;-80
2022/12/21 08:40:34;;;;;;;2.47;1.40;;;6.80;99.90;;;;;;4364901;32;21796;-80
2022/12/21 08:42:59;;;;;;;0.80;0.80;;;6.80;99.90;;;;;;4366157;32;20105;-79
2022/12/21 08:45:26;;;;;;;0.52;0.52;;;6.80;99.90;;;;;;4369402;32;20494;-80
2022/12/21 08:47:51;;;;;;;1.40;1.23;;;6.90;99.90;;;;;;4357896;32;20340;-79
2022/12/21 08:50:18;;;;;;;0.65;0.62;;;6.80;99.90;;;;;;4339196;32;21477;-77
2022/12/21 08:52:48;;;;;;;1.85;1.30;;;6.90;99.90;;;;;;4334036;32;21155;-78
2022/12/21 08:55:13;;;;;;;0.50;0.50;;;6.90;99.90;;;;;;4349400;32;20865;-78
2022/12/21 08:57:39;;;;;;;3.72;2.15;;;6.90;99.90;;;;;;4359528;32;20117;-77
2022/12/21 09:00:09;;;;;;;4.15;0.98;;;7.00;99.90;;;;;;4342484;32;20674;-78
2022/12/21 09:02:35;;;;;;;3.42;1.70;;;6.90;99.90;;;;;;4332296;32;22253;-78
2022/12/21 09:05:02;;;;;;;1.08;0.98;;;7.00;99.90;;;;;;4343741;32;20074;-78
2022/12/21 09:07:27;;;;;;;0.98;0.98;;;7.10;99.90;;;;;;4354547;32;20121;-78
2022/12/21 09:09:53;;;;;;;3.12;0.68;;;7.00;99.90;;;;;;4371325;32;20093;-78
2022/12/21 09:12:18;;;;;;;1.20;1.10;;;7.10;99.90;;;;;;4371035;32;20098;-78
2022/12/21 09:14:44;;;;;;;10.82;2.20;;;7.00;99.90;;;;;;4375761;32;20105;-78
2022/12/21 09:17:10;;;;;;;0.88;0.73;;;7.10;99.90;;;;;;4370915;32;20172;-79
2022/12/21 09:19:35;;;;;;;0.75;0.75;;;7.10;99.90;;;;;;4355962;32;20604;-79
2022/12/21 09:22:01;;;;;;;2.37;1.52;;;7.10;99.90;;;;;;4354947;32;20366;-78
2022/12/21 09:24:26;;;;;;;1.10;0.77;;;7.20;99.90;;;;;;4352632;32;20152;-78
2022/12/21 09:26:52;;;;;;;1.48;0.80;;;7.20;99.90;;;;;;4369480;32;20105;-78
2022/12/21 09:29:19;;;;;;;1.65;1.00;;;7.20;99.90;;;;;;4359283;32;21120;-78
2022/12/21 09:31:45;;;;;;;0.77;0.55;;;7.30;99.90;;;;;;4345071;32;20260;-77
2022/12/21 09:34:13;;;;;;;2.53;1.35;;;7.30;99.90;;;;;;4340642;32;20248;-80
2022/12/21 09:36:48;;;;;;;1.62;1.33;;;7.30;99.90;;;;;;4354004;32;20513;-80
2022/12/21 09:39:14;;;;;;;1.90;1.15;;;7.30;99.90;;;;;;4362488;32;20821;-80
2022/12/21 09:41:52;;;;;;;5.85;1.30;;;7.30;99.90;;;;;;4368149;32;20684;-79
2022/12/21 09:44:46;;;;;;;4.00;1.80;;;7.30;99.90;;;;;;4369068;32;20407;-78
2022/12/21 09:47:19;;;;;;;1.37;1.23;;;7.30;99.90;;;;;;4358979;32;20258;-79
2022/12/21 09:49:53;;;;;;;3.90;1.23;;;7.40;99.90;;;;;;4350486;32;20316;-78
2022/12/21 09:52:34;;;;;;;1.08;1.02;;;7.30;99.90;;;;;;4355676;32;20262;-78
2022/12/21 09:55:05;;;;;;;1.23;1.02;;;7.30;99.90;;;;;;4364343;32;20618;-78
2022/12/21 09:57:34;;;;;;;0.65;0.65;;;7.40;99.90;;;;;;4376012;32;22502;-78
2022/12/21 10:00:00;;;;;;;5.20;1.30;;;7.40;99.90;;;;;;4357906;32;20361;-79
2022/12/21 10:02:36;;;;;;;0.70;0.70;;;7.50;99.90;;;;;;4339467;32;20133;-79
2022/12/21 10:05:30;;;;;;;1.73;1.23;;;7.50;99.90;;;;;;4346204;32;21085;-79
2022/12/21 10:08:21;;;;;;;0.88;0.85;;;7.50;99.90;;;;;;4349127;32;20086;-79
2022/12/21 10:11:01;;;;;;;2.90;1.17;;;7.50;99.90;;;;;;4346544;32;20949;-78
2022/12/21 10:13:42;;;;;;;2.53;1.75;;;7.50;99.90;;;;;;4375784;32;20471;-78
2022/12/21 10:16:46;;;;;;;0.88;0.88;;;7.50;99.90;;;;;;4368785;32;20264;-78
2022/12/21 10:19:37;;;;;;;3.33;1.90;;;7.50;99.90;;;;;;4351674;32;20125;-79
2022/12/21 10:22:20;;;;;;;1.62;1.10;;;7.50;99.90;;;;;;4331543;32;20158;-78
2022/12/21 10:24:50;;;;;;;0.82;0.82;;;7.60;99.90;;;;;;4349528;32;21994;-78
2022/12/21 10:27:39;;;;;;;0.82;0.82;;;7.60;99.90;;;;;;4369592;32;20243;-78
2022/12/21 10:30:05;;;;;;;0.98;0.85;;;7.60;99.90;;;;;;4337842;32;20133;-78
2022/12/21 10:32:35;;;;;;;0.60;0.60;;;7.60;99.90;;;;;;4345287;32;20786;-78
2022/12/21 10:35:19;;;;;;;0.62;0.62;;;7.60;99.90;;;;;;4346747;32;20612;-77
2022/12/21 10:37:48;;;;;;;2.87;1.08;;;7.60;99.90;;;;;;4370093;32;20503;-77
2022/12/21 10:40:14;;;;;;;9.82;2.92;;;7.70;99.90;;;;;;4370472;32;20078;-78
2022/12/21 10:42:44;;;;;;;0.88;0.85;;;7.70;99.90;;;;;;4378237;32;20105;-78
2022/12/21 10:45:13;;;;;;;3.87;1.30;;;7.70;99.90;;;;;;4375307;32;20090;-78
2022/12/21 10:47:40;;;;;;;0.65;0.65;;;7.80;99.90;;;;;;4373828;32;20105;-77
2022/12/21 10:50:13;;;;;;;2.42;1.77;;;7.80;99.90;;;;;;4355841;32;20221;-78
2022/12/21 10:52:41;;;;;;;0.52;0.43;;;7.80;99.90;;;;;;4354897;32;20405;-78
2022/12/21 10:55:34;;;;;;;3.00;1.75;;;7.80;99.90;;;;;;4372677;32;20097;-79
2022/12/21 10:58:12;;;;;;;1.17;0.88;;;7.80;99.90;;;;;;4376860;32;20486;-78
2022/12/21 11:00:40;;;;;;;0.70;0.70;;;7.80;99.90;;;;;;4353283;32;21479;-78
2022/12/21 11:03:25;;;;;;;1.70;0.85;;;7.80;99.90;;;;;;4340929;32;20202;-79
2022/12/21 11:05:51;;;;;;;2.12;1.12;;;7.80;99.90;;;;;;4351251;32;20201;-79
2022/12/21 11:08:26;;;;;;;2.40;1.33;;;7.80;99.90;;;;;;4366292;32;20220;-78
2022/12/21 11:10:55;;;;;;;1.00;1.00;;;7.80;99.90;;;;;;4362345;32;20245;-77
2022/12/21 11:13:27;;;;;;;1.73;1.35;;;7.80;99.90;;;;;;4366969;32;20093;-77
2022/12/21 11:16:04;;;;;;;0.82;0.80;;;7.80;99.90;;;;;;4360069;32;20119;-77
2022/12/21 11:18:36;;;;;;;0.60;0.60;;;7.90;99.90;;;;;;4362768;32;20210;-76
2022/12/21 11:21:04;;;;;;;1.08;0.98;;;7.90;99.90;;;;;;4347677;32;20193;-78
2022/12/21 11:23:30;;;;;;;2.45;1.17;;;7.90;99.90;;;;;;4349900;32;20074;-78
2022/12/21 11:25:56;;;;;;;1.90;1.50;;;7.90;99.90;;;;;;4365442;32;20110;-78
2022/12/21 11:28:23;;;;;;;0.52;0.52;;;7.80;99.90;;;;;;4367005;32;21708;-78
2022/12/21 11:30:52;;;;;;;1.37;1.27;;;7.80;99.90;;;;;;4350233;32;21529;-78
2022/12/21 11:33:18;;;;;;;0.80;0.80;;;7.80;99.90;;;;;;4328064;32;20331;-78
2022/12/21 11:36:05;;;;;;;1.60;1.02;;;7.80;99.90;;;;;;4349720;32;21641;-78
2022/12/21 11:38:34;;;;;;;1.50;0.95;;;7.90;99.90;;;;;;4349642;32;20105;-78
2022/12/21 11:41:00;;;;;;;1.83;1.30;;;7.90;99.90;;;;;;4362689;32;20321;-77
2022/12/21 11:43:27;;;;;;;2.67;2.05;;;7.90;99.90;;;;;;4366769;32;20378;-78
2022/12/21 11:46:32;;;;;;;9.02;1.20;;;7.90;99.90;;;;;;4375168;32;20091;-78
2022/12/21 11:49:42;;;;;;;0.55;0.55;;;7.90;99.90;;;;;;4333061;32;20431;-77
2022/12/21 11:52:23;;;;;;;3.50;2.17;;;7.90;99.90;;;;;;4317848;32;20392;-78
2022/12/21 11:55:08;;;;;;;6.80;2.22;;;8.00;99.90;;;;;;4352797;32;20633;-80
2022/12/21 11:57:48;;;;;;;0.57;0.55;;;8.00;99.90;;;;;;4365737;32;20743;-78
2022/12/21 12:00:18;;;;;;;1.20;0.73;;;8.00;99.90;;;;;;4328954;32;20265;-78
2022/12/21 12:03:24;;;;;;;1.45;1.30;;;7.90;99.90;;;;;;4328514;32;20814;-77
2022/12/21 12:06:06;;;;;;;0.70;0.70;;;7.90;99.90;;;;;;4347007;32;20082;-77
2022/12/21 12:08:49;;;;;;;7.80;1.67;;;8.00;99.90;;;;;;4363616;32;20089;-78
2022/12/21 12:11:36;;;;;;;2.80;1.87;;;8.00;99.90;;;;;;4359620;32;20180;-78
2022/12/21 12:14:12;;;;;;;0.70;0.70;;;8.00;99.90;;;;;;4349678;32;20110;-79
2022/12/21 12:17:08;;;;;;;3.10;1.52;;;8.00;99.90;;;;;;4370452;32;20213;-78
2022/12/21 12:19:55;;;;;;;14.35;4.00;;;8.00;99.90;;;;;;4335889;32;20106;-79
2022/12/21 12:22:36;;;;;;;2.03;1.15;;;8.10;99.90;;;;;;4307823;32;20411;-77
2022/12/21 12:25:19;;;;;;;3.42;1.52;;;8.10;99.90;;;;;;4353750;32;20557;-79
2022/12/21 12:27:58;;;;;;;0.77;0.77;;;8.10;99.90;;;;;;4360303;32;20130;-79
2022/12/21 12:30:31;;;;;;;1.35;0.95;;;8.10;99.90;;;;;;4329406;32;20303;-78
2022/12/21 12:33:37;;;;;;;0.75;0.75;;;8.10;99.90;;;;;;4334724;32;20124;-79
2022/12/21 12:36:12;;;;;;;6.45;1.55;;;8.00;99.90;;;;;;4341460;32;20073;-79
2022/12/21 12:39:07;;;;;;;8.30;1.75;;;8.00;99.90;;;;;;4360075;32;20109;-79
2022/12/21 12:41:57;;;;;;;2.20;1.30;;;8.00;99.90;;;;;;4343429;32;20867;-79
2022/12/21 12:44:53;;;;;;;1.17;1.08;;;7.90;99.90;;;;;;4357244;32;21131;-78
2022/12/21 12:47:43;;;;;;;1.33;1.10;;;8.00;99.90;;;;;;4359293;32;20310;-78
2022/12/21 12:50:21;;;;;;;1.70;1.52;;;8.00;99.90;;;;;;4331463;32;20093;-78
2022/12/21 12:53:10;;;;;;;0.62;0.62;;;8.00;99.90;;;;;;4332792;32;20093;-78
2022/12/21 12:55:48;;;;;;;0.80;0.80;;;8.10;99.90;;;;;;4348523;32;20117;-79
2022/12/21 12:58:36;;;;;;;2.92;1.60;;;8.10;99.90;;;;;;4353974;32;20469;-78
2022/12/21 13:01:12;;;;;;;1.45;0.95;;;8.10;99.90;;;;;;4325997;32;20419;-79
2022/12/21 13:04:04;;;;;;;2.28;1.25;;;8.10;99.90;;;;;;4340815;32;20086;-79
2022/12/21 13:07:02;;;;;;;3.50;0.98;;;8.00;99.90;;;;;;4366426;32;20135;-78
2022/12/21 13:09:47;;;;;;;0.90;0.90;;;8.00;99.90;;;;;;4347410;32;21963;-78
2022/12/21 13:12:23;;;;;;;1.42;1.33;;;8.00;99.90;;;;;;4364015;32;20109;-79
2022/12/21 13:15:13;;;;;;;1.92;0.80;;;8.00;99.90;;;;;;4371431;32;21901;-79
2022/12/21 13:17:43;;;;;;;1.80;1.25;;;8.10;99.90;;;;;;4370471;32;20153;-79
2022/12/21 13:20:15;;;;;;;7.47;1.27;;;8.10;99.90;;;;;;4358394;32;20101;-79
2022/12/21 13:22:42;;;;;;;1.05;0.95;;;8.10;99.90;;;;;;4344082;32;20335;-79
2022/12/21 13:25:16;;;;;;;1.20;0.93;;;8.10;99.90;;;;;;4375658;32;20481;-79
2022/12/21 13:27:43;;;;;;;1.70;1.37;;;8.10;99.90;;;;;;4382222;32;20180;-79
2022/12/21 13:30:15;;;;;;;1.17;1.00;;;8.20;99.90;;;;;;4339663;32;20404;-79
2022/12/21 13:32:46;;;;;;;0.75;0.70;;;8.20;99.90;;;;;;4328345;32;22282;-80
2022/12/21 13:35:17;;;;;;;2.58;1.23;;;8.20;99.90;;;;;;4348964;32;20081;-79
2022/12/21 13:37:44;;;;;;;0.73;0.70;;;8.10;99.90;;;;;;4381646;32;20107;-79
2022/12/21 13:40:21;;;;;;;1.30;1.05;;;8.20;99.90;;;;;;4373335;32;20091;-79
2022/12/21 13:42:52;;;;;;;1.08;0.98;;;8.20;99.90;;;;;;4378057;32;20081;-78
2022/12/21 13:45:45;;;;;;;9.07;2.30;;;8.10;99.90;;;;;;4379375;32;20266;-78
2022/12/21 13:48:15;;;;;;;2.15;1.15;;;8.10;99.90;;;;;;4357506;32;20110;-78
2022/12/21 13:50:56;;;;;;;1.65;1.05;;;8.20;99.90;;;;;;4351207;32;20112;-78
2022/12/21 13:53:39;;;;;;;0.98;0.88;;;8.20;99.90;;;;;;4344710;32;20336;-78
2022/12/21 13:56:29;;;;;;;6.95;0.82;;;8.20;99.90;;;;;;4383955;32;20081;-79
2022/12/21 13:59:03;;;;;;;5.45;1.40;;;8.20;99.90;;;;;;4366355;32;20106;-79
2022/12/21 14:01:31;;;;;;;1.35;1.12;;;8.20;99.90;;;;;;4328468;32;20534;-77
2022/12/21 14:04:04;;;;;;;1.37;1.05;;;8.20;99.90;;;;;;4331594;32;20086;-76
2022/12/21 14:06:55;;;;;;;0.55;0.50;;;8.10;99.90;;;;;;4369501;32;20498;-77
2022/12/21 14:09:32;;;;;;;1.37;1.17;;;8.20;99.90;;;;;;4356672;32;20082;-78
2022/12/21 14:12:24;;;;;;;1.95;1.05;;;8.10;99.90;;;;;;4373010;32;20082;-79
2022/12/21 14:15:08;;;;;;;1.00;0.70;;;8.10;99.90;;;;;;4366531;32;20090;-78
2022/12/21 14:17:43;;;;;;;0.75;0.75;;;8.10;99.90;;;;;;4367965;32;20284;-78
2022/12/21 14:20:32;;;;;;;1.52;0.85;;;8.00;99.90;;;;;;4346943;32;20363;-77
2022/12/21 14:23:01;;;;;;;1.20;1.10;;;8.00;99.90;;;;;;4320241;32;20181;-76
2022/12/21 14:25:34;;;;;;;0.73;0.73;;;8.00;99.90;;;;;;4375139;32;20380;-76
2022/12/21 14:28:23;;;;;;;1.08;0.82;;;8.00;99.90;;;;;;4375204;32;20226;-76
2022/12/21 14:30:56;;;;;;;2.05;1.33;;;7.90;99.90;;;;;;4322916;32;20269;-77
2022/12/21 14:33:27;;;;;;;0.70;0.70;;;8.00;99.90;;;;;;4322143;32;20340;-78
2022/12/21 14:36:21;;;;;;;0.77;0.77;;;8.00;99.90;;;;;;4364124;32;20498;-78
2022/12/21 14:39:09;;;;;;;0.75;0.75;;;8.10;99.90;;;;;;4361602;32;20074;-77
2022/12/21 14:41:36;;;;;;;4.10;1.55;;;8.10;99.90;;;;;;4361835;32;20443;-77
2022/12/21 14:44:17;;;;;;;1.35;1.25;;;8.20;99.90;;;;;;4379421;32;20407;-78
2022/12/21 14:47:04;;;;;;;0.73;0.73;;;8.20;99.90;;;;;;4374041;32;20410;-77
2022/12/21 14:49:32;;;;;;;0.70;0.70;;;8.10;99.90;;;;;;4338127;32;20082;-77
2022/12/21 14:51:59;;;;;;;3.45;1.35;;;8.10;99.90;;;;;;4333628;32;20851;-76
2022/12/21 14:54:36;;;;;;;4.65;1.55;;;8.10;99.90;;;;;;4360594;32;20117;-77
2022/12/21 14:57:12;;;;;;;2.08;1.02;;;8.20;99.90;;;;;;4381134;32;20153;-77
2022/12/21 14:59:44;;;;;;;1.23;1.15;;;8.20;99.90;;;;;;4341679;32;20965;-77
2022/12/21 15:02:49;;;;;;;0.82;0.80;;;8.20;99.90;;;;;;4322066;32;20217;-77
2022/12/21 15:05:24;;;;;;;1.25;1.15;;;8.20;99.90;;;;;;4343320;32;20418;-78
2022/12/21 15:07:55;;;;;;;0.60;0.60;;;8.20;99.90;;;;;;4378924;32;20131;-77
2022/12/21 15:10:26;;;;;;;1.40;1.33;;;8.20;99.90;;;;;;4376015;32;20770;-77
2022/12/21 15:12:54;;;;;;;1.27;1.15;;;8.10;99.90;;;;;;4373320;32;20098;-77
2022/12/21 15:15:29;;;;;;;1.35;0.77;;;8.10;99.90;;;;;;4383613;32;20078;-77
2022/12/21 15:17:58;;;;;;;1.05;0.90;;;8.10;99.90;;;;;;4376505;32;20485;-77
2022/12/21 15:20:43;;;;;;;0.77;0.77;;;8.10;99.90;;;;;;4339829;32;20213;-77
2022/12/21 15:23:19;;;;;;;1.55;1.15;;;8.10;99.90;;;;;;4347038;32;20265;-77
2022/12/21 15:25:46;;;;;;;0.50;0.45;;;8.10;99.90;;;;;;4390129;32;20118;-77
2022/12/21 15:28:21;;;;;;;3.10;1.55;;;8.10;99.90;;;;;;4377459;32;20089;-77
2022/12/21 15:30:51;;;;;;;25.00;1.52;;;8.10;99.90;;;;;;4345026;32;20066;-77
2022/12/21 15:33:21;;;;;;;2.20;1.02;;;8.10;99.90;;;;;;4368971;32;20659;-77
2022/12/21 15:35:53;;;;;;;0.60;0.60;;;8.10;99.90;;;;;;4394576;32;20114;-77
2022/12/21 15:38:24;;;;;;;0.88;0.88;;;8.10;99.90;;;;;;4378999;32;20054;-77
2022/12/21 15:40:56;;;;;;;0.90;0.85;;;8.10;99.90;;;;;;4387921;32;20066;-77
2022/12/21 15:43:31;;;;;;;2.30;1.12;;;8.20;99.90;;;;;;4379494;32;20156;-78
2022/12/21 15:46:05;;;;;;;1.30;0.93;;;8.10;99.90;;;;;;4394321;32;20136;-77
2022/12/21 15:48:40;;;;;;;0.85;0.85;;;8.20;99.90;;;;;;4400352;32;20110;-77
2022/12/21 15:51:27;;;;;;;1.60;0.95;;;8.20;99.90;;;;;;4392321;32;20090;-77
2022/12/21 15:54:15;;;;;;;0.50;0.50;;;8.20;99.90;;;;;;4343565;32;20078;-77
2022/12/21 15:56:45;;;;;;;0.52;0.52;;;8.20;99.90;;;;;;4373467;32;20135;-77
2022/12/21 15:59:13;;;;;;;0.93;0.77;;;8.20;99.90;;;;;;4392921;32;20058;-77
2022/12/21 16:01:38;;;;;;;0.62;0.62;;;8.10;99.90;;;;;;4399355;32;20053;-77
2022/12/21 16:04:08;;;;;;;0.47;0.47;;;8.00;99.90;;;;;;4399961;32;20149;-77
2022/12/21 16:06:34;;;;;;;1.52;1.08;;;8.00;99.90;;;;;;4397224;32;20085;-77
2022/12/21 16:09:00;;;;;;;1.12;0.70;;;8.00;99.90;;;;;;4394803;32;20062;-78
2022/12/21 16:11:29;;;;;;;2.03;0.88;;;8.10;99.90;;;;;;4378904;32;20218;-78
2022/12/21 16:14:02;;;;;;;1.10;0.93;;;8.00;99.90;;;;;;4379170;32;20498;-76
2022/12/21 16:16:33;;;;;;;1.60;1.00;;;8.00;99.90;;;;;;4397608;32;20564;-78
2022/12/21 16:18:59;;;;;;;1.05;0.85;;;8.00;99.90;;;;;;4397194;32;20081;-78